Latest Weather Observations for Cape Willoughby

IDS60801

Issued at 9:35 pm CST Thursday 24 July 2014 (issued every 30 minutes, with the page automatically refreshed every 10 minutes)

About weather observations | Map of weather stations | Latest weather observations for SA | Other Formats
Station Details ID: 022803 Name: CAPE WILLOUGHBY Lat: -35.84 Lon: 138.13 Height: 55.0 m
Data from the previous 72 hours. | See also: Recent months at Cape Willoughby
Date/Time
CST
Temp
°C
App
Temp
°C
Dew
Point
Rel
Hum
%
Delta-T
°C
Wind Press
QNH
hPa
Press
MSL
hPa
Rain
since 9 am
mm
Dir
 
Spd
km/h
Gust
km/h
Spd
kts
Gust
kts
24/09:30pm 11.4 6.9 10.0 91 0.7 WNW 24 32 13 17 1010.1 1010.1 1.6
24/09:00pm 11.4 6.5 10.1 92 0.7 WNW 26 32 14 17 1009.9 1009.9 1.6
24/08:30pm 11.6 7.1 10.2 91 0.7 WNW 24 30 13 16 1009.8 1009.8 1.6
24/08:00pm 11.8 7.0 10.4 91 0.7 WNW 26 30 14 16 1009.4 - 1.6
24/07:30pm 11.5 7.4 10.2 92 0.7 WNW 22 26 12 14 1009.2 1009.2 1.6
24/07:00pm 11.5 7.8 10.2 92 0.7 WNW 20 22 11 12 1009.0 - 1.6
24/06:30pm 11.9 8.0 10.8 93 0.6 WNW 22 26 12 14 1008.4 1008.4 1.6
24/06:00pm 12.1 8.8 11.0 93 0.6 NW 19 20 10 11 1008.0 1008.0 1.6
24/05:30pm 12.3 9.5 11.2 93 0.6 NW 17 20 9 11 1007.6 1007.6 1.6
24/05:00pm 12.7 10.4 11.6 93 0.6 NW 15 17 8 9 1007.3 - 1.6
24/04:30pm 12.8 9.5 11.7 93 0.6 NW 20 26 11 14 1007.0 1007.0 1.6
24/04:00pm 13.3 11.7 11.7 90 0.9 NW 11 15 6 8 1006.5 - 1.4
24/03:30pm 13.2 10.0 11.4 89 1.0 WNW 19 24 10 13 1006.2 1006.2 1.4
24/03:00pm 13.3 8.6 10.5 83 1.5 W 26 35 14 19 1005.8 1005.8 1.0
24/02:30pm 15.1 10.3 11.7 80 1.8 NW 28 35 15 19 1005.3 1005.3 0.0
24/02:00pm 14.1 9.4 10.7 80 1.8 NW 26 37 14 20 1005.0 - 0.0
24/01:30pm 14.8 9.9 11.4 80 1.8 NW 28 39 15 21 1005.1 1005.1 0.0
24/01:00pm 14.5 9.8 10.7 78 2.0 NW 26 33 14 18 1005.1 - 0.0
24/12:30pm 14.7 10.7 11.7 82 1.6 NW 24 32 13 17 1005.4 1005.4 0.0
24/12:00pm 13.6 8.8 10.4 81 1.7 NW 26 33 14 18 1005.8 1005.8 0.0
24/11:30am 14.0 8.8 10.4 79 1.9 WNW 28 39 15 21 1006.0 1006.0 0.0
24/11:00am 13.3 8.6 10.5 83 1.5 WNW 26 35 14 19 1005.9 - 0.0
24/10:30am 13.0 7.9 10.7 86 1.2 NW 28 37 15 20 1005.6 1005.6 0.0
24/10:00am 12.9 8.5 11.6 92 0.7 NW 26 33 14 18 1005.3 - 0.0
24/09:30am 12.5 9.2 11.7 95 0.4 NNW 20 28 11 15 1005.0 1005.0 0.0
24/09:00am 12.4 8.0 11.8 96 0.3 NNW 26 32 14 17 1004.8 1004.8 8.6
24/08:30am 12.0 7.1 11.4 96 0.3 N 28 32 15 17 1004.5 1004.5 8.6
24/08:00am 11.4 7.5 10.9 97 0.3 NNE 22 26 12 14 1004.4 - 8.6
24/07:30am 11.2 7.3 10.7 97 0.3 NE 22 30 12 16 1004.2 1004.2 8.0
24/07:00am 11.1 6.4 10.5 96 0.3 NE 26 32 14 17 1004.1 - 7.8
24/06:30am 10.8 5.6 10.2 96 0.3 NE 28 32 15 17 1004.2 1004.2 7.6
24/06:00am 10.7 5.0 9.9 95 0.4 NE 30 37 16 20 1004.0 1004.0 7.6
24/05:30am 10.6 4.5 9.8 95 0.4 NE 32 37 17 20 1004.0 1004.0 7.6
24/05:00am 10.6 4.2 9.5 93 0.6 NE 33 39 18 21 1004.1 - 7.6
24/04:30am 10.4 3.6 9.2 92 0.6 NE 35 43 19 23 1004.2 1004.2 7.6
24/04:00am 10.7 3.2 9.5 92 0.6 NE 39 46 21 25 1004.5 - 7.6
24/03:30am 10.4 2.5 9.2 92 0.6 NE 41 50 22 27 1004.8 1004.8 7.6
24/03:00am 10.6 2.1 9.4 92 0.6 ENE 44 56 24 30 1005.2 1005.2 7.2
24/02:30am 10.8 1.9 9.2 90 0.8 ENE 46 56 25 30 1005.5 1005.5 6.6
24/02:00am 11.2 2.7 9.3 88 1.0 NE 44 54 24 29 1005.9 - 6.4
24/01:30am 11.2 2.8 9.1 87 1.1 NE 43 50 23 27 1006.3 1006.3 6.4
24/01:00am 10.8 3.2 8.9 88 0.9 NE 39 48 21 26 1007.0 - 6.4
24/12:30am 11.0 2.1 9.3 89 0.9 ENE 46 57 25 31 1007.3 1007.3 6.4
24/12:00am 11.4 0.4 9.3 87 1.1 NE 57 67 31 36 1007.3 1007.3 6.4
 
Date/Time
CST
Temp
°C
App
Temp
°C
Dew
Point
Rel
Hum
%
Delta-T
°C
Wind Press
QNH
hPa
Press
MSL
hPa
Rain
since 9 am
mm
Dir
 
Spd
km/h
Gust
km/h
Spd
kts
Gust
kts
23/11:30pm 11.2 0.4 9.1 87 1.1 NE 56 69 30 37 1008.0 1008.0 6.4
23/11:00pm 11.4 0.0 9.1 86 1.2 NE 59 69 32 37 1008.4 - 6.4
23/10:40pm 11.2 0.1 8.6 84 1.3 NE 57 80 31 43 1008.8 - 6.4
23/10:30pm 11.1 0.2 8.8 86 1.1 NE 56 70 30 38 1008.8 1008.8 6.4
23/10:00pm 11.0 0.5 8.9 87 1.0 NE 54 67 29 36 1009.5 - 6.4
23/09:30pm 10.9 1.2 9.0 88 0.9 NE 50 63 27 34 1010.1 1010.1 6.4
23/09:00pm 10.9 0.9 9.2 89 0.9 NE 52 63 28 34 1010.4 1010.4 6.4
23/08:33pm 10.9 2.0 9.2 89 0.8 NE 46 65 25 35 1010.8 - 6.2
23/08:30pm 11.1 1.9 9.5 90 0.8 NE 48 63 26 34 1010.9 1010.9 6.2
23/08:00pm 10.7 0.3 9.1 90 0.8 NE 54 65 29 35 1010.6 - 6.0
23/07:30pm 10.5 0.7 8.8 89 0.8 NE 50 59 27 32 1011.2 1011.2 5.6
23/07:00pm 11.2 2.0 9.5 89 0.9 NE 48 57 26 31 1011.5 - 4.0
23/06:30pm 11.1 3.2 9.2 88 1.0 NE 41 50 22 27 1011.6 1011.6 3.0
23/06:00pm 10.9 2.8 8.8 87 1.0 ENE 41 50 22 27 1011.2 1011.2 2.2
23/05:30pm 11.6 4.8 9.3 86 1.2 NE 35 43 19 23 1011.6 1011.6 1.8
23/05:00pm 11.3 2.3 9.0 86 1.1 NE 46 57 25 31 1011.6 - 1.4
23/04:30pm 11.8 3.5 10.0 89 0.9 ENE 44 54 24 29 1010.9 1010.9 1.4
23/04:00pm 11.8 4.1 10.2 90 0.8 ENE 41 52 22 28 1011.1 - 1.4
23/03:30pm 11.9 6.0 10.3 90 0.8 E 32 39 17 21 1011.5 1011.5 1.4
23/03:00pm 12.3 6.8 10.7 90 0.8 E 30 35 16 19 1011.7 1011.7 1.4
23/02:30pm 12.2 7.9 10.6 90 0.8 E 24 28 13 15 1011.9 1011.9 1.0
23/02:00pm 11.9 6.3 10.3 90 0.8 N 30 35 16 19 1013.0 - 0.6
23/01:30pm 12.1 3.8 9.5 84 1.3 N 43 48 23 26 1013.3 1013.3 0.0
23/01:00pm 13.2 6.4 7.6 69 2.7 NNW 33 41 18 22 1014.3 - 0.0
23/12:30pm 14.0 7.9 8.2 68 2.9 N 30 41 16 22 1014.4 1014.4 0.0
23/12:00pm 13.6 6.3 7.4 66 3.0 N 35 43 19 23 1015.2 1015.3 0.0
23/11:30am 13.2 9.4 9.8 80 1.7 NNE 20 24 11 13 1016.1 1016.2 0.0
23/11:00am 12.9 8.7 9.7 81 1.6 NNE 22 26 12 14 1016.3 - 0.0
23/10:30am 12.7 9.2 10.2 85 1.3 ENE 19 22 10 12 1016.7 1016.8 0.0
23/10:00am 12.2 7.9 9.2 82 1.5 ENE 22 26 12 14 1016.9 - 0.0
23/09:30am 12.2 7.9 9.4 83 1.4 ENE 22 26 12 14 1017.3 1017.4 0.0
23/09:00am 11.9 9.0 9.5 85 1.2 NE 15 22 8 12 1017.3 1017.4 0.0
23/08:30am 11.4 7.6 9.1 86 1.1 NE 19 22 10 12 1017.3 1017.4 0.0
23/08:00am 11.5 7.1 9.1 85 1.2 NE 22 28 12 15 1017.3 - 0.0
23/07:30am 11.3 6.1 8.9 85 1.2 ENE 26 30 14 16 1017.4 1017.5 0.0
23/07:00am 11.4 6.2 9.0 85 1.2 NE 26 32 14 17 1017.4 - 0.0
23/06:30am 11.6 6.8 9.0 84 1.3 NE 24 32 13 17 1017.5 1017.6 0.0
23/06:00am 11.7 7.0 9.1 84 1.3 ENE 24 30 13 16 1017.5 1017.6 0.0
23/05:30am 11.9 8.0 9.3 84 1.3 ENE 20 26 11 14 1017.6 1017.7 0.0
23/05:00am 11.9 7.9 9.1 83 1.4 ENE 20 24 11 13 1017.6 - 0.0
23/04:30am 12.0 7.6 9.0 82 1.5 NE 22 28 12 15 1017.9 1018.0 0.0
23/04:00am 12.0 7.2 9.0 82 1.5 NE 24 28 13 15 1018.1 - 0.0
23/03:30am 12.2 8.4 9.2 82 1.5 NE 19 24 10 13 1018.4 1018.5 0.0
23/03:00am 12.3 8.3 9.1 81 1.6 ENE 20 24 11 13 1018.6 1018.7 0.0
23/02:30am 12.4 8.4 9.2 81 1.6 NE 20 26 11 14 1018.9 1019.0 0.0
23/02:00am 12.3 7.6 9.1 81 1.6 ENE 24 28 13 15 1019.2 - 0.0
23/01:30am 12.7 8.4 9.3 80 1.7 ENE 22 28 12 15 1019.1 1019.2 0.0
23/01:00am 12.8 8.0 8.9 77 2.0 ENE 24 28 13 15 1019.3 - 0.0
23/12:30am 12.9 8.6 9.2 78 1.9 ENE 22 28 12 15 1019.5 1019.6 0.0
23/12:00am 13.0 8.6 9.1 77 2.0 NE 22 28 12 15 1020.0 1020.0 0.0
 
Date/Time
CST
Temp
°C
App
Temp
°C
Dew
Point
Rel
Hum
%
Delta-T
°C
Wind Press
QNH
hPa
Press
MSL
hPa
Rain
since 9 am
mm
Dir
 
Spd
km/h
Gust
km/h
Spd
kts
Gust
kts
22/11:30pm 13.1 8.7 8.8 75 2.2 NE 22 26 12 14 1020.3 1020.3 0.0
22/11:00pm 12.9 8.6 9.5 80 1.7 NE 22 26 12 14 1020.6 - 0.0
22/10:30pm 13.1 8.8 9.4 78 1.9 NE 22 28 12 15 1020.5 1020.5 0.0
22/10:00pm 12.9 9.0 9.5 80 1.7 NE 20 26 11 14 1020.7 - 0.0
22/09:30pm 13.0 9.1 9.6 80 1.7 ENE 20 26 11 14 1021.0 1021.0 0.0
22/09:00pm 13.3 9.7 9.7 79 1.8 ENE 19 24 10 13 1021.3 1021.3 0.0
22/08:30pm 13.3 9.6 10.3 82 1.6 ENE 20 24 11 13 1021.0 1021.0 0.0
22/08:00pm 13.4 10.4 10.6 83 1.5 ENE 17 22 9 12 1021.3 - 0.0
22/07:30pm 13.4 10.7 10.4 82 1.6 ENE 15 19 8 10 1021.4 1021.4 0.0
22/07:00pm 13.3 11.4 10.5 83 1.5 ENE 11 15 6 8 1021.6 - 0.0
22/06:30pm 13.1 11.1 10.3 83 1.4 ENE 11 15 6 8 1021.4 1021.4 0.0
22/06:00pm 12.9 10.9 10.1 83 1.4 ENE 11 13 6 7 1021.5 1021.5 0.0
22/05:30pm 12.6 11.0 10.1 85 1.3 ENE 9 13 5 7 1021.6 1021.6 0.0
22/05:00pm 12.6 10.5 9.8 83 1.4 ENE 11 13 6 7 1021.0 - 0.0
22/04:30pm 13.0 10.9 9.6 80 1.7 E 11 13 6 7 1020.9 1020.9 0.0
22/04:00pm 13.5 11.8 9.7 78 2.0 E 9 13 5 7 1021.2 - 0.0
22/03:30pm 14.0 12.7 9.8 76 2.2 ENE 7 9 4 5 1021.4 1021.4 0.0
22/03:00pm 13.9 12.5 8.7 71 2.6 ENE 6 7 3 4 1021.5 1021.5 0.0
22/02:30pm 14.1 12.8 9.3 73 2.4 ENE 6 6 3 3 1021.5 1021.5 0.0
22/02:00pm 13.9 12.6 9.3 74 2.4 NE 6 7 3 4 1021.7 - 0.0
22/01:30pm 14.1 12.8 9.9 76 2.2 NNE 7 7 4 4 1022.0 1022.0 0.0
22/01:00pm 14.0 12.7 9.8 76 2.2 NNE 7 9 4 5 1022.3 - 0.0
22/12:30pm 14.1 12.7 9.7 75 2.3 NE 7 9 4 5 1022.6 1022.6 0.0
22/12:00pm 14.2 12.9 9.8 75 2.3 ENE 7 9 4 5 1023.1 1023.1 0.0
22/11:30am 14.3 12.5 9.5 73 2.5 ENE 9 11 5 6 1023.6 1023.6 0.0
22/11:00am 14.4 13.0 9.6 73 2.5 ENE 7 11 4 6 1023.8 - 0.0
22/10:30am 14.4 12.9 9.2 71 2.6 ENE 7 7 4 4 1024.1 1024.1 0.0
22/10:00am 14.4 12.9 9.0 70 2.8 ENE 7 9 4 5 1024.2 - 0.0
22/09:30am 14.3 13.2 8.5 68 2.9 N 4 6 2 3 1024.2 1024.2 0.0
22/09:00am 13.6 12.4 8.0 69 2.8 N 4 6 2 3 1024.1 1024.1 0.0
22/08:30am 12.7 11.1 8.2 74 2.2 N 6 7 3 4 1024.0 1024.0 0.0
22/08:00am 11.5 9.4 6.6 72 2.3 N 7 7 4 4 1023.7 - 0.0
22/07:30am 11.1 9.1 6.3 72 2.2 N 6 7 3 4 1023.6 1023.6 0.0
22/07:00am 10.8 8.7 5.6 70 2.4 N 6 9 3 5 1023.4 - 0.0
22/06:30am 11.3 9.4 7.4 77 1.9 NNW 7 7 4 4 1023.2 1023.2 0.0
22/06:00am 11.5 10.0 8.4 81 1.5 N 6 6 3 3 1022.9 1022.9 0.0
22/05:30am 11.3 9.6 8.3 82 1.5 N 7 7 4 4 1022.7 1022.7 0.0
22/05:00am 12.0 10.5 8.3 78 1.8 NNE 6 7 3 4 1022.7 - 0.0
22/04:30am 12.1 11.1 8.8 80 1.6 NNE 4 4 2 2 1022.7 1022.7 0.0
22/04:00am 11.9 10.8 8.6 80 1.6 NNE 4 6 2 3 1022.7 - 0.0
22/03:30am 12.0 10.0 8.8 81 1.6 NNE 9 9 5 5 1022.6 1022.6 0.0
22/03:00am 12.1 10.5 8.8 80 1.6 NNE 7 11 4 6 1022.7 1022.7 0.0
22/02:30am 12.0 9.6 8.7 80 1.6 NNE 11 13 6 7 1022.6 1022.6 0.0
22/02:00am 11.8 9.4 8.5 80 1.6 NNE 11 13 6 7 1022.6 - 0.0
22/01:30am 11.8 10.1 8.5 80 1.6 NE 7 9 4 5 1022.6 1022.6 0.0
22/01:00am 11.9 10.3 8.2 78 1.8 N 6 6 3 3 1022.6 - 0.0
22/12:30am 11.7 10.4 7.8 77 1.9 N 4 6 2 3 1022.8 1022.8 0.0
22/12:00am 11.3 9.5 7.8 79 1.7 N 7 9 4 5 1022.9 1022.9 0.0
 
Date/Time
CST
Temp
°C
App
Temp
°C
Dew
Point
Rel
Hum
%
Delta-T
°C
Wind Press
QNH
hPa
Press
MSL
hPa
Rain
since 9 am
mm
Dir
 
Spd
km/h
Gust
km/h
Spd
kts
Gust
kts
21/11:30pm 11.3 9.3 7.2 76 2.0 N 7 9 4 5 1022.9 1022.9 0.0
21/11:00pm 11.4 9.5 6.9 74 2.1 N 6 6 3 3 1022.9 - 0.0
21/10:30pm 11.4 9.4 7.1 75 2.1 N 7 7 4 4 1022.9 1022.9 0.0
21/10:00pm 11.5 9.5 7.0 74 2.2 N 7 7 4 4 1022.9 - 0.0

Other Formats:

Comma delimited format used in spreadsheet applications
http://www.bom.gov.au/fwo/IDS60801/IDS60801.94822.axf

JavaScript Object Notation format (JSON) in row-major order
http://www.bom.gov.au/fwo/IDS60801/IDS60801.94822.json